SWR22 LSGG-KJFK
Flight info
| Callsign | SWR22 |
|---|---|
| Flight time | N/A |
| Altitude | 36000 |
| Route | DIPIR T37 IBABA DCT TUTAX DCT OBURO DCT OKRIX DCT AMODO DCT COHPA UM729 RESMI DCT TABOV DCT PIGOP DCT DITAL UN491 LGL UN502 ARGED DCT SENLO DCT JSY DCT LIZAD DCT LESLU DCT LINRA DCT MALOT/M085F370 NATE RIKAL/N0488F380 N572A TOPPS DCT ENE PARCH4 |
| Aircraft | A359/H-SDE2E3GHIJ3J4J5LM1ORWXY/LB1D1 |
Departure
| Time | 2026-05-05 08:53 |
|---|---|
| Airport | Geneva International Airport (LSGG) |
Arrival
| Time | N/A |
|---|---|
| Airport | John F. Kennedy International Airport (KJFK) |
| Time | Latitude | Longitude | Altitude | Speed | Heading |
|---|---|---|---|---|---|
| 2026-05-05 08:25 | 46.23382 | 6.11038 | 1399 ft | 0 kts | 135° |
| 2026-05-05 08:36 | 46.23397 | 6.11019 | 1409 ft | 4 kts | 143° |
| 2026-05-05 08:36 | 46.23419 | 6.10998 | 1409 ft | 4 kts | 159° |
| 2026-05-05 08:36 | 46.23445 | 6.10990 | 1409 ft | 4 kts | 189° |
| 2026-05-05 08:37 | 46.23461 | 6.11000 | 1409 ft | 0 kts | 226° |
| 2026-05-05 08:37 | 46.23461 | 6.10999 | 1409 ft | 0 kts | 226° |
| 2026-05-05 08:39 | 46.23460 | 6.10999 | 1409 ft | 0 kts | 226° |
| 2026-05-05 08:40 | 46.23460 | 6.10998 | 1409 ft | 0 kts | 226° |
| 2026-05-05 08:44 | 46.23434 | 6.10960 | 1407 ft | 9 kts | 225° |
| 2026-05-05 08:45 | 46.23389 | 6.10893 | 1404 ft | 10 kts | 225° |
| 2026-05-05 08:45 | 46.23360 | 6.10813 | 1407 ft | 8 kts | 271° |
| 2026-05-05 08:45 | 46.23382 | 6.10753 | 1408 ft | 6 kts | 316° |
| 2026-05-05 08:45 | 46.23383 | 6.10752 | 1408 ft | 0 kts | 316° |
| 2026-05-05 08:46 | 46.23398 | 6.10732 | 1409 ft | 7 kts | 314° |
| 2026-05-05 08:46 | 46.23407 | 6.10665 | 1404 ft | 9 kts | 254° |
| 2026-05-05 08:47 | 46.23368 | 6.10598 | 1405 ft | 9 kts | 228° |
| 2026-05-05 08:47 | 46.23308 | 6.10509 | 1409 ft | 16 kts | 226° |
| 2026-05-05 08:47 | 46.23227 | 6.10389 | 1409 ft | 17 kts | 225° |
| 2026-05-05 08:47 | 46.23147 | 6.10272 | 1410 ft | 16 kts | 225° |
| 2026-05-05 08:48 | 46.23067 | 6.10153 | 1410 ft | 18 kts | 226° |
| 2026-05-05 08:48 | 46.22980 | 6.10026 | 1409 ft | 18 kts | 225° |
| 2026-05-05 08:48 | 46.22894 | 6.09902 | 1409 ft | 17 kts | 225° |
| 2026-05-05 08:48 | 46.22809 | 6.09777 | 1411 ft | 17 kts | 227° |
| 2026-05-05 08:49 | 46.22731 | 6.09650 | 1411 ft | 17 kts | 228° |
| 2026-05-05 08:49 | 46.22656 | 6.09528 | 1412 ft | 16 kts | 228° |
| 2026-05-05 08:49 | 46.22576 | 6.09415 | 1411 ft | 16 kts | 223° |
| 2026-05-05 08:49 | 46.22561 | 6.09383 | 1413 ft | 0 kts | 250° |
| 2026-05-05 08:51 | 46.22558 | 6.09372 | 1411 ft | 5 kts | 250° |
| 2026-05-05 08:51 | 46.22552 | 6.09284 | 1418 ft | 7 kts | 268° |
| 2026-05-05 08:51 | 46.22562 | 6.09215 | 1421 ft | 9 kts | 296° |
| 2026-05-05 08:51 | 46.22630 | 6.09184 | 1427 ft | 15 kts | 26° |
| 2026-05-05 08:52 | 46.22739 | 6.09332 | 1425 ft | 40 kts | 45° |
| 2026-05-05 08:52 | 46.23088 | 6.09843 | 1424 ft | 103 kts | 45° |
| 2026-05-05 08:52 | 46.23728 | 6.10781 | 1384 ft | 158 kts | 45° |
| 2026-05-05 08:52 | 46.24580 | 6.12013 | 1716 ft | 176 kts | 44° |
| 2026-05-05 08:53 | 46.25425 | 6.13235 | 2494 ft | 170 kts | 45° |
| 2026-05-05 08:53 | 46.26291 | 6.14509 | 2820 ft | 184 kts | 46° |
| 2026-05-05 08:53 | 46.27216 | 6.15884 | 3055 ft | 197 kts | 47° |
| 2026-05-05 08:53 | 46.28183 | 6.17326 | 3309 ft | 209 kts | 47° |
| 2026-05-05 08:54 | 46.29241 | 6.18892 | 3484 ft | 227 kts | 47° |
| 2026-05-05 08:54 | 46.30390 | 6.20585 | 3665 ft | 245 kts | 46° |
| 2026-05-05 08:54 | 46.31625 | 6.22402 | 3892 ft | 261 kts | 47° |
| 2026-05-05 08:54 | 46.32921 | 6.24307 | 4316 ft | 269 kts | 47° |
| 2026-05-05 08:55 | 46.34244 | 6.26253 | 4858 ft | 273 kts | 47° |
| 2026-05-05 08:55 | 46.35593 | 6.28236 | 5348 ft | 279 kts | 47° |
| 2026-05-05 08:55 | 46.36958 | 6.30267 | 5879 ft | 284 kts | 47° |
| 2026-05-05 08:55 | 46.38341 | 6.32337 | 6420 ft | 288 kts | 48° |
| 2026-05-05 08:56 | 46.39749 | 6.34386 | 6918 ft | 293 kts | 44° |
| 2026-05-05 08:56 | 46.41561 | 6.35724 | 7431 ft | 297 kts | 9° |
| 2026-05-05 08:56 | 46.43595 | 6.35540 | 8069 ft | 294 kts | 339° |
| 2026-05-05 08:56 | 46.45538 | 6.34583 | 8649 ft | 296 kts | 338° |
| 2026-05-05 08:57 | 46.47525 | 6.33696 | 9286 ft | 301 kts | 341° |
| 2026-05-05 08:57 | 46.49565 | 6.32963 | 9942 ft | 305 kts | 343° |
| 2026-05-05 08:57 | 46.51684 | 6.32312 | 10371 ft | 318 kts | 345° |
| 2026-05-05 08:57 | 46.53911 | 6.31697 | 10715 ft | 334 kts | 346° |
| 2026-05-05 08:58 | 46.56216 | 6.31106 | 11010 ft | 349 kts | 347° |
| 2026-05-05 08:58 | 46.58663 | 6.30503 | 11267 ft | 364 kts | 347° |
| 2026-05-05 08:58 | 46.61209 | 6.29887 | 11537 ft | 377 kts | 348° |
| 2026-05-05 08:58 | 46.63824 | 6.29259 | 12007 ft | 383 kts | 348° |
| 2026-05-05 08:59 | 46.66442 | 6.28473 | 12556 ft | 385 kts | 340° |
| 2026-05-05 08:59 | 46.68879 | 6.26903 | 13121 ft | 384 kts | 329° |
| 2026-05-05 08:59 | 46.71225 | 6.25011 | 13698 ft | 387 kts | 327° |
| 2026-05-05 08:59 | 46.73575 | 6.23070 | 14176 ft | 391 kts | 327° |
| 2026-05-05 09:00 | 46.75923 | 6.21135 | 14618 ft | 395 kts | 328° |
| 2026-05-05 09:00 | 46.78329 | 6.19158 | 15126 ft | 399 kts | 328° |
| 2026-05-05 09:00 | 46.80756 | 6.17166 | 15625 ft | 402 kts | 328° |
| 2026-05-05 09:00 | 46.83208 | 6.15154 | 16145 ft | 406 kts | 328° |
| 2026-05-05 09:01 | 46.85678 | 6.13130 | 16628 ft | 408 kts | 328° |
| 2026-05-05 09:01 | 46.88169 | 6.11086 | 17098 ft | 413 kts | 328° |
| 2026-05-05 09:01 | 46.90687 | 6.09009 | 17625 ft | 418 kts | 328° |
| 2026-05-05 09:01 | 46.93094 | 6.06616 | 18140 ft | 418 kts | 316° |
| 2026-05-05 09:02 | 46.94997 | 6.03509 | 18565 ft | 416 kts | 300° |
| 2026-05-05 09:02 | 46.96255 | 5.99736 | 18987 ft | 412 kts | 284° |
| 2026-05-05 09:02 | 46.96756 | 5.95645 | 19395 ft | 408 kts | 268° |
| 2026-05-05 09:02 | 46.96530 | 5.91529 | 19831 ft | 406 kts | 257° |
| 2026-05-05 09:03 | 46.95969 | 5.87472 | 20273 ft | 408 kts | 253° |
| 2026-05-05 09:03 | 46.95265 | 5.83441 | 20715 ft | 410 kts | 251° |
| 2026-05-05 09:03 | 46.94501 | 5.79403 | 21136 ft | 414 kts | 250° |
| 2026-05-05 09:03 | 46.93720 | 5.75331 | 21557 ft | 417 kts | 251° |
| 2026-05-05 09:04 | 46.92956 | 5.71281 | 22030 ft | 419 kts | 251° |
| 2026-05-05 09:04 | 46.92198 | 5.67163 | 22565 ft | 420 kts | 251° |
| 2026-05-05 09:04 | 46.91448 | 5.63015 | 23035 ft | 424 kts | 251° |
| 2026-05-05 09:04 | 46.90699 | 5.58828 | 23488 ft | 427 kts | 251° |
| 2026-05-05 09:05 | 46.89948 | 5.54608 | 23879 ft | 430 kts | 251° |
| 2026-05-05 09:05 | 46.89193 | 5.50362 | 24326 ft | 433 kts | 251° |
| 2026-05-05 09:05 | 46.88601 | 5.46022 | 24738 ft | 440 kts | 259° |
| 2026-05-05 09:05 | 46.88520 | 5.41515 | 25140 ft | 449 kts | 270° |
| 2026-05-05 09:06 | 46.89084 | 5.36987 | 25530 ft | 457 kts | 282° |
| 2026-05-05 09:06 | 46.90021 | 5.32526 | 25911 ft | 462 kts | 285° |
| 2026-05-05 09:06 | 46.91252 | 5.28232 | 26326 ft | 466 kts | 295° |
| 2026-05-05 09:06 | 46.92986 | 5.24205 | 26701 ft | 472 kts | 305° |
| 2026-05-05 09:07 | 46.95194 | 5.20604 | 27018 ft | 478 kts | 313° |
| 2026-05-05 09:07 | 46.97607 | 5.17229 | 27337 ft | 482 kts | 315° |
| 2026-05-05 09:07 | 47.00098 | 5.13926 | 27671 ft | 485 kts | 316° |
| 2026-05-05 09:07 | 47.02628 | 5.10639 | 27987 ft | 487 kts | 316° |
| 2026-05-05 09:08 | 47.05174 | 5.07337 | 28296 ft | 490 kts | 316° |
| 2026-05-05 09:08 | 47.07727 | 5.04005 | 28581 ft | 493 kts | 316° |
| 2026-05-05 09:08 | 47.10297 | 5.00623 | 28747 ft | 499 kts | 316° |
| 2026-05-05 09:08 | 47.12844 | 4.97246 | 29061 ft | 501 kts | 315° |
| 2026-05-05 09:09 | 47.15427 | 4.93805 | 29442 ft | 502 kts | 315° |
| 2026-05-05 09:09 | 47.18009 | 4.90356 | 29883 ft | 501 kts | 315° |
| 2026-05-05 09:09 | 47.20593 | 4.86896 | 30135 ft | 504 kts | 315° |
| 2026-05-05 09:09 | 47.23185 | 4.83419 | 30368 ft | 506 kts | 315° |
| 2026-05-05 09:10 | 47.25788 | 4.79924 | 30616 ft | 507 kts | 315° |
| 2026-05-05 09:10 | 47.28396 | 4.76419 | 30853 ft | 508 kts | 315° |
| 2026-05-05 09:10 | 47.31015 | 4.72894 | 31035 ft | 511 kts | 315° |
| 2026-05-05 09:10 | 47.33645 | 4.69350 | 31223 ft | 513 kts | 315° |
| 2026-05-05 09:11 | 47.36247 | 4.65840 | 31444 ft | 514 kts | 315° |
| 2026-05-05 09:11 | 47.38884 | 4.62278 | 31698 ft | 515 kts | 315° |
| 2026-05-05 09:11 | 47.41526 | 4.58702 | 32045 ft | 514 kts | 315° |
| 2026-05-05 09:11 | 47.44148 | 4.55150 | 32518 ft | 510 kts | 315° |
| 2026-05-05 09:12 | 47.46753 | 4.51617 | 32908 ft | 507 kts | 315° |
| 2026-05-05 09:12 | 47.49352 | 4.48087 | 33175 ft | 507 kts | 315° |
| 2026-05-05 09:12 | 47.51949 | 4.44553 | 33390 ft | 508 kts | 315° |
| 2026-05-05 09:12 | 47.54548 | 4.41012 | 33571 ft | 508 kts | 315° |
| 2026-05-05 09:13 | 47.57145 | 4.37467 | 33828 ft | 508 kts | 315° |
| 2026-05-05 09:13 | 47.59703 | 4.33970 | 34069 ft | 506 kts | 315° |
| 2026-05-05 09:13 | 47.61332 | 4.31741 | 34252 ft | 505 kts | 315° |
| 2026-05-05 09:13 | 47.63910 | 4.28082 | 34504 ft | 502 kts | 310° |
| 2026-05-05 09:14 | 47.65593 | 4.25177 | 34651 ft | 498 kts | 304° |
| 2026-05-05 09:14 | 47.67637 | 4.21048 | 34834 ft | 497 kts | 302° |
| 2026-05-05 09:14 | 47.69614 | 4.16846 | 34993 ft | 496 kts | 301° |
| 2026-05-05 09:14 | 47.71551 | 4.12614 | 35153 ft | 495 kts | 301° |
| 2026-05-05 09:15 | 47.73467 | 4.08369 | 35311 ft | 495 kts | 301° |
| 2026-05-05 09:15 | 47.75346 | 4.04185 | 35459 ft | 494 kts | 301° |
| 2026-05-05 09:15 | 47.77259 | 3.99925 | 35623 ft | 494 kts | 301° |
| 2026-05-05 09:15 | 47.79167 | 3.95683 | 35760 ft | 493 kts | 301° |
| 2026-05-05 09:16 | 47.81080 | 3.91430 | 35841 ft | 496 kts | 301° |
| 2026-05-05 09:16 | 47.84937 | 3.82853 | 35835 ft | 501 kts | 301° |
| 2026-05-05 09:17 | 47.88806 | 3.74238 | 35836 ft | 500 kts | 301° |
| 2026-05-05 09:17 | 47.92665 | 3.65619 | 35834 ft | 500 kts | 301° |
| 2026-05-05 09:18 | 47.96705 | 3.57249 | 35833 ft | 503 kts | 309° |
| 2026-05-05 09:18 | 47.98430 | 3.54629 | 35838 ft | 504 kts | 315° |
| 2026-05-05 09:19 | 48.01683 | 3.50199 | 35830 ft | 505 kts | 316° |
| 2026-05-05 09:19 | 48.04707 | 3.46262 | 35828 ft | 506 kts | 317° |
| 2026-05-05 09:20 | 48.07744 | 3.42375 | 35828 ft | 506 kts | 317° |
| 2026-05-05 09:20 | 48.07848 | 3.42243 | 35828 ft | 506 kts | 317° |
| 2026-05-05 09:21 | 48.13200 | 3.35408 | 35831 ft | 506 kts | 317° |
| 2026-05-05 09:21 | 48.18542 | 3.28534 | 35829 ft | 506 kts | 317° |
| 2026-05-05 09:22 | 48.23836 | 3.21674 | 35828 ft | 506 kts | 317° |